Tiempo atmosférico en la estación meteorológica de Gaucín, Málaga (545 m.)



Fecha
DESCASC
Temp. máxima en grados centígrados (hora)
DESCASC
Temp. mínima en grados centígrados (hora)
DESCASC
Temp. media en grados centígrados
DESCASC
Racha de viento máxima en m/sg (hora)
DESCASC
Velocidad máxima media en intervalos de 10 minutos(hora)
DESCASC
Precipitaciones diarias en mm
DESCASC
Precipitaciones de 00:00 a 06:00 en mm
DESCASC
Precipitaciones de 06:00 a 12:00 en mm
DESCASC
Precipitaciones de 12:00 a 18:00 en mm
DESCASC
Precipitaciones de 18:00 a 24:00 en mm
DESCASC
20-05-2018 19 (14:00) 12 (08:00) 15.5 8.06 (14:00) 5 (14:00) 1.6 0 0 0.2 1.4
19-05-2018 20.8 (16:20) 12.3 (02:50) 16.5 7.5 (18:00) 5.56 (18:10) 0 0 0 0 0
18-05-2018 20.7 (16:10) 12.3 (00:00) 16.5 6.67 (17:00) 3.61 (17:00) 0 0 0 0 0
17-05-2018 18.2 (16:00) 12.3 (00:00) 15.3 10 (15:10) 6.39 (15:10) 0 0 0 0 0
16-05-2018 21 (16:30) 12.3 (00:00) 16.7 8.61 (14:00) 3.06 (18:00) 0 0 0 0 0
15-05-2018 23.2 (17:00) 11.5 (00:00) 17.4 6.11 (14:20) 2.5 (21:30) 0 0 0 0 0
14-05-2018 20.3 (16:30) 9.6 (00:00) 14.9 7.78 (12:50) 5 (14:40) 0 0 0 0 0
13-05-2018 19.7 (18:00) 7.7 (00:00) 13.7 8.06 (14:50) 3.61 (15:30) 0 0 0 0 0
12-05-2018 18.7 (16:50) 11.5 (00:00) 15.1 13.61 (20:30) 4.17 (08:30) 0 0 0 0 0
11-05-2018 20.4 (16:50) 11.6 (06:10) 16 7.5 (15:40) 5 (15:40) 0 0 0 0 0
10-05-2018 19.4 (17:50) 11.1 (00:00) 15.3 8.89 (13:40) 5.83 (14:00) 0 0 0 0 0
09-05-2018 15.3 (14:20) 11.9 (00:00) 13.6 7.78 (13:30) 4.44 (13:30) 0 0 0 0 0
08-05-2018 22.6 (15:40) 10.5 (00:00) 16.6 9.72 (11:50) 5.28 (12:10) 0 0 0 0 0
07-05-2018 19.6 (14:10) 12.4 (00:00) 16 9.44 (16:40) 6.11 (16:30) 0.2 0 0.2 0 0
06-05-2018 19.6 (16:30) 12.3 (00:00) 16 8.89 (15:30) 3.06 (15:40) 0 0 0 0 0
05-05-2018 19.2 (18:10) 9.6 (00:00) 14.4 6.67 (17:30) 3.89 (16:10) 0 0 0 0 0
04-05-2018 18.6 (12:50) 10 (00:00) 14.3 8.61 (14:40) 4.17 (18:40) 38 0 0 37.6 0.4
03-05-2018 21.7 (17:00) 5.8 (00:00) 13.8 10 (22:00) 3.89 (21:50) 0 0 0 0 0
02-05-2018 17.6 (15:10) 3.7 (00:00) 10.7 8.33 (18:20) 3.89 (21:40) 0 0 0 0 0
01-05-2018 14.5 (17:30) 4.8 (07:10) 9.7 9.17 (17:50) 4.72 (16:10) 0.4 0 0 0.2 0.2
30-04-2018 13.9 (15:10) 6.1 (00:00) 10 10.83 (13:50) 3.61 (14:30) 0 0 0 0 0
29-04-2018 14.3 (16:50) 6.5 (00:00) 10.4 11.67 (04:10) 5.28 (16:30) 2.4 2 0.2 0.2 0
28-04-2018 16 (16:10) 8 (00:00) 12 13.33 (17:00) 7.78 (17:00) 2.6 0 0 0 2.6
27-04-2018 22.9 (15:50) 11.5 (00:00) 17.2 9.72 (23:30) 5.56 (23:10) 0 0 0 0 0
26-04-2018 21.1 (13:40) 11.2 (00:00) 16.2 7.5 (14:10) 4.72 (19:40) 0 0 0 0 0
25-04-2018 19.7 (15:50) 11.2 (00:00) 15.5 8.33 (17:30) 5.28 (17:30) 0 0 0 0 0
24-04-2018 19 (17:20) 12.4 (00:00) 15.7 8.61 (15:30) 5.28 (15:20) 0 0 0 0 0
23-04-2018 17.8 (15:50) 12.7 (00:00) 15.2 8.33 (14:10) 5.56 (13:40) 0 0 0 0 0
22-04-2018 18.9 (17:50) 11.2 (00:00) 15 7.78 (00:10) 4.72 (00:10) 0 0 0 0 0

Gráficas

Temp. máximas Temp. mínimas Temp. medias Precipitaciones Rachas de viento máximas Velocidades máximas media en intervalos de 10 minutos

Datos horarios

Fecha y hora oficial Temperatura (ºC) Velocidad del viento (km/h) Dirección del viento Racha (km/h) Dirección de racha Precipitación (mm) Presión (hPa) Tendencia (hPa) Humedad (%)
2018-05-21 23:00:00 -- -- -- -- -- -- -- -- --
2018-05-21 22:00:00 13.6 4 Norte 12 Norte 0 -- -- 90
2018-05-21 21:00:00 14.3 4 Nordeste 18 Norte 0 -- -- 89
2018-05-21 20:00:00 15.7 5 Nordeste 18 Sudoeste 0 -- -- 82
2018-05-21 19:00:00 17 13 Sudoeste 24 Sudoeste 0 -- -- 70
2018-05-21 18:00:00 18.7 15 Sudoeste 26 Sur 0 -- -- 64
2018-05-21 17:00:00 19.6 10 Sudoeste 23 Sur 0 -- -- 65
2018-05-21 16:00:00 19.1 13 Sudoeste 27 Sudoeste 0 -- -- 65
2018-05-21 15:00:00 20.3 12 Sudoeste 25 Sudoeste 0 -- -- 59
2018-05-21 14:00:00 19 10 Sudoeste 27 Sudoeste 0 -- -- 61
2018-05-21 13:00:00 18.4 9 Sudoeste 18 Sur 0 -- -- 68
2018-05-21 12:00:00 16.9 5 Sudoeste 9 Sudoeste 0 -- -- 72
2018-05-21 11:00:00 15.5 3 Nordeste 9 Norte 0 -- -- 77
2018-05-21 10:00:00 14.1 0 Calma 6 Sudoeste 0 -- -- 80
2018-05-21 09:00:00 12.2 0 Calma 9 Norte 0 -- -- 89
2018-05-21 08:00:00 12.4 3 Sur 8 Sur 0 -- -- 85
2018-05-21 07:00:00 12.3 3 Sudeste 11 Norte 0 -- -- 84
2018-05-21 06:00:00 10.4 10 Nordeste 15 Nordeste 0 -- -- 95
2018-05-21 05:00:00 10.5 11 Nordeste 14 Nordeste 0 -- -- 94
2018-05-21 04:00:00 10.7 9 Norte 15 Norte 0 -- -- 95
2018-05-21 03:00:00 10.7 9 Nordeste 14 Norte 0 -- -- 95
2018-05-21 02:00:00 11.8 6 Nordeste 11 Nordeste 0 -- -- 91
2018-05-21 01:00:00 12.3 2 Nordeste 9 Norte 0 -- -- 92
2018-05-21 00:00:00 12.3 6 Nordeste 10 Norte 0 -- -- 90
2018-05-20 23:00:00 12.9 0 Calma 8 Norte 0 -- -- 89
2018-05-20 22:00:00 13.2 5 Norte 10 Norte 0 -- -- 90
2018-05-20 21:00:00 14.2 6 Este 9 Nordeste 0 -- -- 85
2018-05-20 20:00:00 14 2 Este 15 Norte 1 -- -- 90
2018-05-20 19:00:00 14.3 9 Norte 21 Norte 0.4 -- -- 80
2018-05-20 18:00:00 15.7 7 Sudoeste 16 Sudoeste 0 -- -- 67
2018-05-20 17:00:00 17.5 5 Sudoeste 13 Sudoeste 0 -- -- 73
2018-05-20 16:00:00 16 6 Sudoeste 15 Sudoeste 0.2 -- -- 75
2018-05-20 15:00:00 17.1 10 Sudoeste 26 Sudoeste 0 -- -- 65
2018-05-20 14:00:00 19 18 Sudoeste 29 Sudoeste 0 -- -- 62
2018-05-20 13:00:00 18.2 13 Sudoeste 21 Sudoeste 0 -- -- 64
2018-05-20 12:00:00 17.5 7 Sudoeste 14 Sur 0 -- -- 67
2018-05-20 11:00:00 16 3 Sudoeste 5 Sur 0 -- -- 68
2018-05-20 10:00:00 15.6 2 Nordeste 7 Nordeste 0 -- -- 72
2018-05-20 09:00:00 13.6 5 Nordeste 12 Nordeste 0 -- -- 78
2018-05-20 08:00:00 12 9 Norte 14 Norte 0 -- -- 83
2018-05-20 07:00:00 12.7 8 Norte 12 Norte 0 -- -- 79
2018-05-20 06:00:00 13.5 3 Sudeste 10 Nordeste 0 -- -- 74
2018-05-20 05:00:00 13.2 5 Nordeste 9 Nordeste 0 -- -- 76
2018-05-20 04:00:00 13 5 Nordeste 9 Nordeste 0 -- -- 77
2018-05-20 03:00:00 13.7 0 Calma 9 Norte 0 -- -- 72
2018-05-20 02:00:00 13.3 6 Nordeste 8 Nordeste 0 -- -- 76
2018-05-20 01:00:00 13.3 3 Nordeste 8 Nordeste 0 -- -- 76
2018-05-20 00:00:00 13.7 4 Nordeste 10 Norte 0 -- -- 75
2018-05-19 23:00:00 14 4 Norte 9 Norte 0 -- -- 74
2018-05-19 22:00:00 14.5 5 Norte 9 Norte 0 -- -- 72
2018-05-19 21:00:00 15.7 4 Sudoeste 12 Oeste 0 -- -- 67
2018-05-19 20:00:00 17.3 8 Sudoeste 17 Sudoeste 0 -- -- 63
2018-05-19 19:00:00 19 12 Sudoeste 27 Sudoeste 0 -- -- 58
2018-05-19 18:00:00 19.7 20 Sudoeste 27 Sudoeste 0 -- -- 56
2018-05-19 17:00:00 20.5 11 Sudoeste 22 Sudoeste 0 -- -- 55
2018-05-19 16:00:00 20.2 12 Sudoeste 21 Sur 0 -- -- 57
2018-05-19 15:00:00 20 7 Sur 22 Oeste 0 -- -- 59
2018-05-19 14:00:00 19.1 6 Sudoeste 19 Sudeste 0 -- -- 59
2018-05-19 13:00:00 18.2 5 Sudoeste 15 Sudoeste 0 -- -- 60
2018-05-19 12:00:00 17.1 6 Sudoeste 18 Sudoeste 0 -- -- 66
2018-05-19 11:00:00 17.3 5 Sur 13 Sudoeste 0 -- -- 58
2018-05-19 10:00:00 15.8 4 Sudoeste 12 Sur 0 -- -- 65
2018-05-19 09:00:00 14.5 3 Sur 13 Nordeste 0 -- -- 65
2018-05-19 08:00:00 13.3 2 Sudoeste 15 Este 0 -- -- 66
2018-05-19 07:00:00 12.8 3 Oeste 13 Nordeste 0 -- -- 66
2018-05-19 06:00:00 12.9 3 Sudeste 12 Oeste 0 -- -- 68
2018-05-19 05:00:00 12.7 5 Sudoeste 11 Sur 0 -- -- 66
2018-05-19 04:00:00 12.6 4 Sudoeste 13 Oeste 0 -- -- 64
2018-05-19 03:00:00 12.4 3 Oeste 9 Oeste 0 -- -- 64
2018-05-19 02:00:00 12.8 4 Oeste 10 Oeste 0 -- -- 66
2018-05-19 01:00:00 13.3 3 Oeste 8 Norte 0 -- -- 66
2018-05-19 00:00:00 13.5 3 Sudoeste 12 Nordeste 0 -- -- 65
2018-05-18 23:00:00 13.9 3 Oeste 8 Sur 0 -- -- 62
2018-05-18 22:00:00 14.3 2 Oeste 9 Oeste 0 -- -- 60
2018-05-18 21:00:00 15.8 5 Oeste 15 Norte 0 -- -- 57
2018-05-18 20:00:00 18.4 5 Oeste 15 Oeste 0 -- -- 52
2018-05-18 19:00:00 20.1 6 Oeste 18 Sudoeste 0 -- -- 47
2018-05-18 18:00:00 20.2 9 Sudoeste 23 Sudoeste 0 -- -- 51
2018-05-18 17:00:00 20.4 13 Sudoeste 24 Sudoeste 0 -- -- 50
2018-05-18 16:00:00 20.4 10 Sudoeste 23 Sur 0 -- -- 53
2018-05-18 15:00:00 20.3 9 Sudoeste 21 Sudoeste 0 -- -- 55
2018-05-18 14:00:00 19.9 7 Sudoeste 18 Sudoeste 0 -- -- 56
2018-05-18 13:00:00 19.5 9 Sudoeste 23 Sur 0 -- -- 53
2018-05-18 12:00:00 18.1 6 Sudoeste 16 Sudoeste 0 -- -- 53
2018-05-18 11:00:00 17.5 5 Sur 12 Sur 0 -- -- 54
2018-05-18 10:00:00 15.8 5 Sur 12 Sur 0 -- -- 60
2018-05-18 09:00:00 13.6 5 Sudoeste 14 Sur 0 -- -- 70
2018-05-18 08:00:00 12.5 0 Calma 6 Sur 0 -- -- 75
2018-05-18 07:00:00 12.8 0 Calma 12 Nordeste 0 -- -- 71
2018-05-18 06:00:00 12.6 4 Norte 12 Nordeste 0 -- -- 77
2018-05-18 05:00:00 12.3 3 Sudoeste 11 Norte 0 -- -- 81
2018-05-18 04:00:00 12.5 4 Norte 11 Norte 0 -- -- 81
2018-05-18 03:00:00 12.6 2 Oeste 12 Norte 0 -- -- 81
2018-05-18 02:00:00 12.7 4 Oeste 15 Nordeste 0 -- -- 80
2018-05-18 01:00:00 12.9 4 Noroeste 15 Nordeste 0 -- -- 77
2018-05-18 00:00:00 13.2 6 Oeste 18 Oeste 0 -- -- 73
2018-05-17 23:00:00 13.6 6 Oeste 19 Nordeste 0 -- -- 78
2018-05-17 22:00:00 13.9 3 Oeste 11 Oeste 0 -- -- 71
2018-05-17 21:00:00 15.2 3 Oeste 11 Este 0 -- -- 71
2018-05-17 20:00:00 17.1 4 Oeste 20 Sudoeste 0 -- -- 72
2018-05-17 19:00:00 17.4 12 Sudoeste 24 Sudoeste 0 -- -- 73
2018-05-17 18:00:00 18 13 Sudoeste 29 Sudoeste 0 -- -- 69
2018-05-17 17:00:00 17.4 18 Sudoeste 31 Sudoeste 0 -- -- 73
2018-05-17 16:00:00 18.2 16 Sudoeste 36 Sudoeste 0 -- -- 69
2018-05-17 15:00:00 18.1 17 Sudoeste 35 Sudoeste 0 -- -- 66
2018-05-17 14:00:00 17.7 19 Sudoeste 29 Sudoeste 0 -- -- 68
2018-05-17 13:00:00 17.5 15 Sudoeste 28 Oeste 0 -- -- 68
2018-05-17 12:00:00 17.5 12 Sudoeste 19 Sur 0 -- -- 67
2018-05-17 11:00:00 16.6 8 Sudoeste 13 Sur 0 -- -- 65
2018-05-17 10:00:00 14.5 6 Sudoeste 15 Sudoeste 0 -- -- 75
2018-05-17 09:00:00 13.2 7 Sudoeste 19 Sudoeste 0 -- -- 77
2018-05-17 08:00:00 12.5 8 Sudoeste 13 Sudoeste 0 -- -- 70
2018-05-17 07:00:00 13.4 3 Norte 9 Sur 0 -- -- 56
2018-05-17 06:00:00 12.4 4 Oeste 13 Nordeste 0 -- -- 64
2018-05-17 05:00:00 12.8 0 Calma 9 Oeste 0 -- -- 64
2018-05-17 04:00:00 13.7 3 Nordeste 9 Este 0 -- -- 55
2018-05-17 03:00:00 14.4 5 Este 17 Este 0 -- -- 53
2018-05-17 02:00:00 13.6 4 Norte 22 Nordeste 0 -- -- 58
2018-05-17 01:00:00 13.2 5 Oeste 14 Sudoeste 0 -- -- 60
2018-05-17 00:00:00 13.5 4 Oeste 16 Este 0 -- -- 58
2018-05-16 23:00:00 14 6 Oeste 21 Este 0 -- -- 54
2018-05-16 22:00:00 14.4 10 Oeste 22 Sur 0 -- -- 53
2018-05-16 21:00:00 15.2 7 Sur 22 Nordeste 0 -- -- 53
2018-05-16 20:00:00 17.2 10 Sudoeste 31 Nordeste 0 -- -- 50
2018-05-16 19:00:00 18.4 9 Sudoeste 23 Este 0 -- -- 47
2018-05-16 18:00:00 19.7 11 Sudoeste 24 Oeste 0 -- -- 49
2018-05-16 17:00:00 20.5 7 Sudoeste 20 Este 0 -- -- 43
2018-05-16 16:00:00 20.7 8 Norte 24 Nordeste 0 -- -- 44
2018-05-16 15:00:00 20.9 7 Sur 23 Sur 0 -- -- 44
2018-05-16 14:00:00 20 9 Sur 31 Sur 0 -- -- 48
2018-05-16 13:00:00 19.7 6 Sudoeste 19 Sur 0 -- -- 44
2018-05-16 12:00:00 18.8 6 Sudoeste 21 Nordeste 0 -- -- 44
2018-05-16 11:00:00 17.4 6 Sudoeste 18 Noroeste 0 -- -- 42
2018-05-16 10:00:00 16.4 5 Sudoeste 14 Oeste 0 -- -- 43
2018-05-16 09:00:00 14.4 4 Oeste 23 Nordeste 0 -- -- 47
2018-05-16 08:00:00 12.8 4 Norte 16 Nordeste 0 -- -- 47
2018-05-16 07:00:00 12.4 4 Oeste 17 Nordeste 0 -- -- 48
2018-05-16 06:00:00 12.7 4 Noroeste 15 Norte 0 -- -- 55
2018-05-16 05:00:00 12.9 4 Norte 13 Oeste 0 -- -- 53
2018-05-16 04:00:00 13.3 3 Sudoeste 12 Sur 0 -- -- 53
2018-05-16 03:00:00 13.3 5 Sudoeste 15 Nordeste 0 -- -- 53
2018-05-16 02:00:00 13.1 3 Oeste 6 Oeste 0 -- -- 52
2018-05-16 01:00:00 13.1 0 Calma 5 Oeste 0 -- -- 51
2018-05-16 00:00:00 13.7 3 Nordeste 6 Norte 0 -- -- 49
2018-05-15 23:00:00 14.3 0 Calma 8 Nordeste 0 -- -- 49
2018-05-15 22:00:00 14.6 6 Norte 13 Norte 0 -- -- 50
2018-05-15 21:00:00 16.8 5 Norte 11 Noroeste 0 -- -- 46
2018-05-15 20:00:00 21 6 Sudoeste 14 Oeste 0 -- -- 41
2018-05-15 19:00:00 22.1 6 Sudoeste 18 Oeste 0 -- -- 36
2018-05-15 18:00:00 22.7 8 Sudoeste 20 Sur 0 -- -- 36
2018-05-15 17:00:00 23.2 6 Sudoeste 18 Sudeste 0 -- -- 38
2018-05-15 16:00:00 22.8 5 Sudoeste 17 Sur 0 -- -- 36
2018-05-15 15:00:00 21.7 6 Sur 22 Sudeste 0 -- -- 37
2018-05-15 14:00:00 21.7 8 Sudoeste 19 Sur 0 -- -- 34
2018-05-15 13:00:00 20.7 5 Sudoeste 17 Sur 0 -- -- 38
2018-05-15 12:00:00 19.6 6 Sur 14 Sur 0 -- -- 37
2018-05-15 11:00:00 18.5 6 Sudoeste 11 Sudoeste 0 -- -- 40
2018-05-15 10:00:00 17.3 3 Sudoeste 11 Sur 0 -- -- 44
2018-05-15 09:00:00 15 3 Oeste 9 Nordeste 0 -- -- 43
2018-05-15 08:00:00 12 5 Nordeste 11 Nordeste 0 -- -- 54
2018-05-15 07:00:00 12 4 Nordeste 11 Norte 0 -- -- 61
2018-05-15 06:00:00 12.5 0 Calma 8 Nordeste 0 -- -- 56
2018-05-15 05:00:00 11.6 8 Nordeste 13 Nordeste 0 -- -- 69
2018-05-15 04:00:00 11.5 9 Nordeste 13 Norte 0 -- -- 71
2018-05-15 03:00:00 12.5 0 Calma 2 Nordeste 0 -- -- 66
2018-05-15 02:00:00 12.7 0 Calma 10 Nordeste 0 -- -- 64
2018-05-15 01:00:00 13.7 2 Norte 6 Norte 0 -- -- 61
2018-05-15 00:00:00 13.9 5 Norte 7 Nordeste 0 -- -- 61
2018-05-14 23:00:00 13.7 0 Calma 2 Noroeste 0 -- -- 62
2018-05-14 22:00:00 14.7 0 Calma 10 Norte 0 -- -- 61
2018-05-14 21:00:00 16 0 Calma 8 Sudoeste 0 -- -- 54
2018-05-14 20:00:00 18.4 7 Sudoeste 17 Sudoeste 0 -- -- 51
2018-05-14 19:00:00 19.2 12 Sudoeste 20 Sudoeste 0 -- -- 49
2018-05-14 18:00:00 20.2 12 Sudoeste 24 Sudoeste 0 -- -- 48
2018-05-14 17:00:00 20.1 13 Sudoeste 24 Oeste 0 -- -- 48
2018-05-14 16:00:00 20 12 Sudoeste 23 Sudoeste 0 -- -- 49
2018-05-14 15:00:00 18.6 15 Sudoeste 26 Sudoeste 0 -- -- 49
2018-05-14 14:00:00 18.5 15 Sudoeste 26 Sudoeste 0 -- -- 45
2018-05-14 13:00:00 18.3 14 Sudoeste 28 Sudoeste 0 -- -- 44
2018-05-14 12:00:00 17.3 10 Sudoeste 17 Sudoeste 0 -- -- 48
2018-05-14 11:00:00 16.6 7 Sudoeste 11 Sudoeste 0 -- -- 47
2018-05-14 10:00:00 14.6 8 Nordeste 14 Nordeste 0 -- -- 47
2018-05-14 09:00:00 11 13 Nordeste 16 Norte 0 -- -- 53
2018-05-14 08:00:00 10.3 10 Norte 15 Norte 0 -- -- 53
2018-05-14 07:00:00 10.9 10 Norte 14 Norte 0 -- -- 48
2018-05-14 06:00:00 10.6 9 Norte 13 Norte 0 -- -- 50
2018-05-14 05:00:00 10.5 9 Nordeste 14 Norte 0 -- -- 50
2018-05-14 04:00:00 10.9 9 Norte 16 Norte 0 -- -- 47
2018-05-14 03:00:00 9.6 6 Norte 20 Noroeste 0 -- -- 57
2018-05-14 02:00:00 10.8 8 Norte 24 Noroeste 0 -- -- 54
2018-05-14 01:00:00 12.7 5 Norte 13 Noroeste 0 -- -- 46
2018-05-11 20:00:00 -- -- -- -- -- -- -- -- --
2018-05-11 19:00:00 -- -- -- -- -- -- -- -- --
2018-05-11 18:00:00 20.3 13 Sudoeste 23 Sur 0 -- -- 67
2018-05-11 17:00:00 19.8 9 Sudoeste 25 Sudoeste 0 -- -- 64
2018-05-11 16:00:00 19.7 13 Sudoeste 27 Sudoeste 0 -- -- 67
2018-05-11 15:00:00 18.9 13 Sudoeste 26 Sudoeste 0 -- -- 69
2018-05-11 14:00:00 18.4 13 Sudoeste 26 Sudoeste 0 -- -- 71
2018-05-11 13:00:00 16.8 14 Sudoeste 25 Sudoeste 0 -- -- 77
2018-05-11 12:00:00 15.8 12 Sudoeste 19 Sudoeste 0 -- -- 81
2018-05-11 11:00:00 15.4 11 Sudoeste 17 Sudoeste 0 -- -- 81
2018-05-11 10:00:00 14.8 3 Sudoeste 5 Sudoeste 0 -- -- 82
2018-05-11 09:00:00 13.1 2 Nordeste 6 Nordeste 0 -- -- 86
2018-05-11 08:00:00 12.3 0 Calma 7 Nordeste 0 -- -- 84
2018-05-11 07:00:00 11.8 3 Norte 11 Nordeste 0 -- -- 88
2018-05-11 06:00:00 11.7 6 Nordeste 12 Norte 0 -- -- 89
2018-05-11 05:00:00 12.3 3 Este 5 Nordeste 0 -- -- 86
2018-05-11 04:00:00 12.2 2 Este 8 Nordeste 0 -- -- 89
2018-05-11 03:00:00 12.6 3 Nordeste 6 Nordeste 0 -- -- 89
2018-05-11 02:00:00 12.9 3 Norte 10 Noroeste 0 -- -- 89
2018-05-11 01:00:00 12.5 6 Norte 14 Norte 0 -- -- 90
2018-05-11 00:00:00 13.3 8 Norte 13 Norte 0 -- -- 87
2018-05-10 23:00:00 13.2 7 Norte 14 Norte 0 -- -- 87
2018-05-10 22:00:00 14.1 7 Norte 17 Norte 0 -- -- 84
2018-05-10 21:00:00 15.3 9 Norte 17 Norte 0 -- -- 79
2018-05-10 20:00:00 18.1 8 Oeste 21 Sudoeste 0 -- -- 71
2018-05-10 19:00:00 19 9 Sudoeste 18 Sudoeste 0 -- -- 70
2018-05-10 18:00:00 19.4 8 Sudoeste 26 Sudoeste 0 -- -- 69
2018-05-10 17:00:00 18.7 19 Sudoeste 30 Sudoeste 0 -- -- 70
2018-05-10 16:00:00 18.1 15 Sudoeste 30 Sudoeste 0 -- -- 70
2018-05-10 15:00:00 17.3 16 Sudoeste 32 Sudoeste 0 -- -- 75
2018-05-10 14:00:00 16.5 21 Sudoeste 32 Sudoeste 0 -- -- 78
2018-05-10 13:00:00 15.4 11 Sudoeste 22 Sudoeste 0 -- -- 84
2018-05-10 12:00:00 14.5 4 Oeste 21 Oeste 0 -- -- 83
2018-05-10 11:00:00 13.2 4 Sudoeste 14 Noroeste 0 -- -- 89
2018-05-10 10:00:00 12.6 4 Oeste 14 Noroeste 0 -- -- 93
2018-05-10 09:00:00 12.4 5 Oeste 14 Oeste 0 -- -- 91
2018-05-10 08:00:00 12 4 Norte 13 Oeste 0 -- -- 92
2018-05-10 07:00:00 12 3 Sudeste 11 Noroeste 0 -- -- 91
2018-05-10 06:00:00 12 4 Norte 14 Nordeste 0 -- -- 89
2018-05-10 05:00:00 11.8 4 Noroeste 17 Nordeste 0 -- -- 90
2018-05-10 04:00:00 11.7 5 Norte 22 Norte 0 -- -- 90
2018-05-10 03:00:00 11.5 4 Sudoeste 15 Oeste 0 -- -- 90
2018-05-10 02:00:00 11.2 2 Sudeste 13 Norte 0 -- -- 89
2018-05-10 01:00:00 11.7 5 Norte 19 Sur 0 -- -- 89
2018-05-10 00:00:00 12.4 7 Norte 15 Norte 0 -- -- 89
2018-05-09 23:00:00 13 4 Noroeste 10 Norte 0 -- -- 88
2018-05-09 22:00:00 13.9 2 Noroeste 13 Oeste 0 -- -- 87
2018-05-09 21:00:00 14.3 4 Sudoeste 14 Sudoeste 0 -- -- 86
2018-05-09 20:00:00 14.6 5 Oeste 15 Oeste 0 -- -- 87
2018-05-09 19:00:00 14.8 3 Sudoeste 12 Sudoeste 0 -- -- 88
2018-05-09 18:00:00 14.9 4 Sur 18 Oeste 0 -- -- 88
2018-05-09 17:00:00 15.2 9 Oeste 22 Oeste 0 -- -- 87
2018-05-09 16:00:00 15.1 9 Oeste 22 Oeste 0 -- -- 87
2018-05-09 15:00:00 15 13 Sudoeste 27 Oeste 0 -- -- 87
2018-05-09 14:00:00 14.9 15 Sudoeste 28 Sur 0 -- -- 88
2018-05-09 13:00:00 14.6 13 Sudoeste 22 Sudoeste 0 -- -- 89
2018-05-09 12:00:00 14.8 7 Oeste 18 Sudoeste 0 -- -- 87
2018-05-09 11:00:00 14 4 Noroeste 13 Norte 0 -- -- 89
2018-05-09 10:00:00 13.3 5 Noroeste 15 Norte 0 -- -- 92
2018-05-09 09:00:00 12.6 7 Oeste 15 Norte 0 -- -- 95
2018-05-09 08:00:00 12 5 Nordeste 17 Norte 0 -- -- 94
2018-05-09 07:00:00 12.1 4 Nordeste 8 Norte 0 -- -- 92
2018-05-09 06:00:00 12.5 5 Nordeste 15 Norte 0 -- -- 92
2018-05-09 05:00:00 13.2 7 Nordeste 12 Norte 0 -- -- 87
2018-05-09 04:00:00 13.2 8 Nordeste 17 Nordeste 0 -- -- 88
2018-05-09 03:00:00 12.8 10 Norte 15 Norte 0 -- -- 92
2018-05-09 02:00:00 13.5 10 Norte 16 Norte 0 -- -- 89
2018-05-09 01:00:00 13.8 11 Norte 18 Norte 0 -- -- 88
2018-05-09 00:00:00 14.7 6 Nordeste 13 Nordeste 0 -- -- 85
2018-05-08 23:00:00 14.7 8 Nordeste 17 Norte 0 -- -- 86
2018-05-08 22:00:00 15.8 5 Norte 27 Norte 0 -- -- 81
2018-05-08 21:00:00 17 17 Norte 35 Norte 0 -- -- 76
2018-05-08 20:00:00 18.6 14 Norte 33 Norte 0 -- -- 71
2018-05-08 19:00:00 20.2 10 Norte 35 Norte 0 -- -- 69
2018-05-08 18:00:00 21.8 10 Noroeste 30 Oeste 0 -- -- 61
2018-05-08 17:00:00 21.9 12 Noroeste 30 Noroeste 0 -- -- 56
2018-05-08 16:00:00 22.3 10 Noroeste 25 Oeste 0 -- -- 54
2018-05-08 15:00:00 22.2 10 Norte 23 Noroeste 0 -- -- 57
2018-05-08 14:00:00 21.2 9 Norte 27 Norte 0 -- -- 58
2018-05-08 13:00:00 19.9 9 Noroeste 33 Noroeste 0 -- -- 62
2018-05-08 12:00:00 17.9 14 Norte 35 Nordeste 0 -- -- 63
2018-05-08 11:00:00 17.8 10 Norte 26 Norte 0 -- -- 66
2018-05-08 10:00:00 15.7 14 Norte 25 Norte 0 -- -- 72
2018-05-08 09:00:00 11.9 10 Nordeste 18 Norte 0 -- -- 93
2018-05-08 08:00:00 10.5 13 Norte 17 Norte 0 -- -- 94
2018-05-08 07:00:00 11.4 9 Norte 15 Norte 0 -- -- 90
2018-05-08 06:00:00 11.7 6 Norte 13 Nordeste 0 -- -- 90
2018-05-08 05:00:00 11.6 4 Norte 12 Norte 0 -- -- 89
2018-05-08 04:00:00 11.9 3 Norte 15 Norte 0 -- -- 87
2018-05-08 03:00:00 13.1 4 Norte 13 Noroeste 0 -- -- 81
2018-05-08 02:00:00 13.4 2 Norte 9 Nordeste 0 -- -- 79
2018-05-08 01:00:00 13.4 2 Norte 13 Norte 0 -- -- 78
2018-05-08 00:00:00 13.4 3 Norte 12 Norte 0 -- -- 78
2018-05-07 23:00:00 13.7 7 Norte 10 Norte 0 -- -- 78
2018-05-07 22:00:00 14.4 4 Sudoeste 7 Oeste 0 -- -- 74
2018-05-07 21:00:00 15.3 0 Calma 10 Oeste 0 -- -- 73
2018-05-07 20:00:00 16.7 9 Sudoeste 17 Sudoeste 0 -- -- 68
2018-05-07 19:00:00 17.1 12 Sudoeste 24 Sudoeste 0 -- -- 68
2018-05-07 18:00:00 17.8 16 Sudoeste 29 Sudoeste 0 -- -- 67
2018-05-07 17:00:00 17.8 17 Sudoeste 34 Sudoeste 0 -- -- 68
2018-05-07 16:00:00 18.6 10 Sudoeste 25 Sudoeste 0 -- -- 62
2018-05-07 15:00:00 17.6 9 Sudoeste 19 Nordeste 0 -- -- 61
2018-05-07 14:00:00 19.4 5 Sudeste 16 Nordeste 0 -- -- 55
2018-05-07 13:00:00 18.8 6 Sur 20 Sur 0 -- -- 58
2018-05-07 12:00:00 17.1 4 Noroeste 15 Nordeste 0 -- -- 63
2018-05-07 11:00:00 16.5 5 Oeste 13 Oeste 0 -- -- 69
2018-05-07 10:00:00 13.6 3 Sur 13 Sudeste 0 -- -- 77
2018-05-07 09:00:00 12.9 3 Nordeste 12 Oeste 0 -- -- 79
2018-05-07 08:00:00 12.4 0 Calma 4 Oeste 0.2 -- -- 83
2018-05-07 07:00:00 12.9 0 Calma 8 Sudeste 0 -- -- 77
2018-05-07 06:00:00 13.1 3 Sudoeste 8 Oeste 0 -- -- 71
2018-05-07 05:00:00 13.9 3 Sur 8 Este 0 -- -- 64
2018-05-07 04:00:00 14.6 8 Sur 17 Sudoeste 0 -- -- 61
2018-05-07 03:00:00 14 6 Sudoeste 15 Oeste 0 -- -- 61
2018-05-07 02:00:00 14.5 10 Sur 26 Sudeste 0 -- -- 60
2018-05-07 01:00:00 13.7 6 Sur 13 Oeste 0 -- -- 64
2018-05-07 00:00:00 13.8 5 Oeste 13 Este 0 -- -- 66
2018-05-06 23:00:00 14.3 5 Sudoeste 24 Nordeste 0 -- -- 63
2018-05-06 22:00:00 14.6 7 Sudoeste 22 Sudoeste 0 -- -- 62
2018-05-06 21:00:00 15.2 8 Oeste 21 Sudeste 0 -- -- 63
2018-05-06 20:00:00 17.2 9 Oeste 23 Sudoeste 0 -- -- 62
2018-05-06 19:00:00 18.8 6 Sur 21 Oeste 0 -- -- 62
2018-05-06 18:00:00 19.3 9 Sudoeste 20 Oeste 0 -- -- 58
2018-05-06 17:00:00 19.4 8 Sur 25 Sudoeste 0 -- -- 56
2018-05-06 16:00:00 19.3 9 Sudoeste 32 Sudoeste 0 -- -- 56
2018-05-06 15:00:00 19 9 Sudoeste 26 Sudoeste 0 -- -- 59
2018-05-06 14:00:00 18.6 8 Sudoeste 25 Norte 0 -- -- 56
2018-05-06 13:00:00 18.5 7 Sudoeste 24 Sudoeste 0 -- -- 60
2018-05-06 12:00:00 18.1 6 Sur 26 Sur 0 -- -- 56
2018-05-06 11:00:00 16.8 10 Sur 29 Sudeste 0 -- -- 57
2018-05-06 10:00:00 15.7 6 Sur 17 Sudoeste 0 -- -- 59
2018-05-06 09:00:00 13.7 5 Sudeste 19 Este 0 -- -- 64
2018-05-06 08:00:00 12.5 3 Oeste 14 Sudoeste 0 -- -- 67
2018-05-06 07:00:00 12.6 7 Sudoeste 17 Sudoeste 0 -- -- 69
2018-05-06 06:00:00 13 4 Sudoeste 27 Norte 0 -- -- 68
2018-05-06 05:00:00 12.6 5 Noroeste 21 Norte 0 -- -- 64
2018-05-06 04:00:00 12.6 3 Nordeste 23 Este 0 -- -- 66
2018-05-06 03:00:00 13 6 Nordeste 20 Este 0 -- -- 65
2018-05-06 02:00:00 13.2 5 Nordeste 16 Este 0 -- -- 63
2018-05-06 01:00:00 13.1 3 Sur 7 Sur 0 -- -- 70
2018-05-06 00:00:00 13.3 3 Sudoeste 13 Oeste 0 -- -- 71
2018-05-05 23:00:00 13.6 6 Oeste 14 Oeste 0 -- -- 71
2018-05-05 22:00:00 13.5 4 Sudoeste 10 Sudoeste 0 -- -- 78
2018-05-05 21:00:00 15.5 3 Noroeste 8 Sur 0 -- -- 73
2018-05-05 20:00:00 17.4 6 Sur 13 Sudoeste 0 -- -- 68
2018-05-05 19:00:00 18.9 8 Sudoeste 15 Sudoeste 0 -- -- 67
2018-05-05 18:00:00 19.1 9 Sudoeste 24 Sudoeste 0 -- -- 70
2018-05-05 17:00:00 18.4 12 Sudoeste 20 Sur 0 -- -- 74
2018-05-05 16:00:00 18.1 12 Sudoeste 22 Sudoeste 0 -- -- 73
2018-05-05 15:00:00 17.9 11 Sudoeste 20 Sudoeste 0 -- -- 76
2018-05-05 14:00:00 17.6 9 Sudoeste 17 Sudoeste 0 -- -- 75
2018-05-05 13:00:00 17.1 8 Sudoeste 15 Sur 0 -- -- 74
2018-05-05 12:00:00 15.8 6 Sur 13 Sur 0 -- -- 76
2018-05-05 11:00:00 14.9 6 Sudoeste 12 Sudoeste 0 -- -- 72
2018-05-05 10:00:00 14.5 3 Sur 5 Sur 0 -- -- 69
2018-05-05 09:00:00 11.4 3 Norte 9 Norte 0 -- -- 81
2018-05-05 08:00:00 10.3 3 Nordeste 9 Nordeste 0 -- -- 81
2018-05-05 07:00:00 10.2 2 Norte 10 Nordeste 0 -- -- 81
2018-05-05 06:00:00 10.6 4 Nordeste 12 Nordeste 0 -- -- 79
2018-05-05 05:00:00 10.4 5 Norte 13 Nordeste 0 -- -- 80
2018-05-05 04:00:00 10.8 4 Norte 12 Norte 0 -- -- 77
2018-05-05 03:00:00 11 5 Nordeste 13 Nordeste 0 -- -- 77
2018-05-05 02:00:00 11.1 3 Norte 13 Norte 0 -- -- 77
2018-05-05 01:00:00 11.5 0 Calma 13 Nordeste 0 -- -- 74
2018-05-05 00:00:00 11.3 7 Nordeste 13 Norte 0 -- -- 79
2018-05-04 23:00:00 10.8 7 Norte 15 Norte 0 -- -- 87
2018-05-04 22:00:00 10.6 10 Norte 15 Norte 0 -- -- 91
2018-05-04 21:00:00 11.4 6 Nordeste 18 Norte 0 -- -- 82
2018-05-04 20:00:00 11.5 13 Norte 23 Norte 0 -- -- 88
2018-05-04 19:00:00 10.3 13 Norte 25 Norte 0.4 -- -- 94
2018-05-04 18:00:00 10.6 5 Norte 13 Norte 5 -- -- 92
2018-05-04 17:00:00 10.5 5 Nordeste 17 Norte 4.6 -- -- 92
2018-05-04 16:00:00 10.7 5 Norte 26 Norte 9.4 -- -- 91
2018-05-04 15:00:00 11.5 8 Nordeste 31 Sudoeste 18 -- -- 89
2018-05-04 14:00:00 15.7 10 Sur 21 Sudoeste 0.6 -- -- 83
2018-05-04 13:00:00 17.7 13 Sudoeste 23 Sudoeste 0 -- -- 72
2018-05-04 12:00:00 17.3 4 Este 23 Sudoeste 0 -- -- 70
2018-05-04 11:00:00 16.2 4 Sur 14 Norte 0 -- -- 73
2018-05-04 10:00:00 14.1 8 Nordeste 13 Norte 0 -- -- 75
2018-05-04 09:00:00 11.7 9 Norte 15 Norte 0 -- -- 82
2018-05-04 08:00:00 10.4 9 Nordeste 15 Nordeste 0 -- -- 87
2018-05-04 07:00:00 10.4 8 Norte 17 Norte 0 -- -- 87
2018-05-04 06:00:00 11.3 4 Nordeste 12 Norte 0 -- -- 83
2018-05-04 05:00:00 11 5 Nordeste 13 Nordeste 0 -- -- 85
2018-05-04 04:00:00 11.3 4 Nordeste 12 Nordeste 0 -- -- 85
2018-05-04 03:00:00 11.6 6 Nordeste 12 Nordeste 0 -- -- 85
2018-05-04 02:00:00 12.2 6 Nordeste 27 Norte 0 -- -- 80
2018-05-04 01:00:00 12.2 10 Nordeste 20 Nordeste 0 -- -- 82
2018-05-04 00:00:00 12.5 8 Nordeste 19 Norte 0 -- -- 82
2018-05-03 23:00:00 13.5 12 Norte 28 Norte 0 -- -- 77
2018-05-03 22:00:00 14.1 13 Norte 36 Norte 0 -- -- 74
2018-05-03 21:00:00 16.2 13 Norte 32 Norte 0 -- -- 61
2018-05-03 20:00:00 19.1 8 Noroeste 25 Norte 0 -- -- 45
2018-05-03 19:00:00 20.1 6 Norte 23 Noroeste 0 -- -- 43
2018-05-03 18:00:00 20.7 9 Oeste 26 Oeste 0 -- -- 45
2018-05-03 17:00:00 21.7 4 Nordeste 21 Norte 0 -- -- 39
2018-05-03 16:00:00 20.6 9 Norte 20 Norte 0 -- -- 37
2018-05-03 15:00:00 20 8 Nordeste 23 Norte 0 -- -- 41
2018-05-03 14:00:00 19.4 7 Norte 26 Nordeste 0 -- -- 42
2018-05-03 13:00:00 18.2 7 Nordeste 21 Norte 0 -- -- 39
2018-05-03 12:00:00 16.8 8 Norte 22 Norte 0 -- -- 45
2018-05-03 11:00:00 15.2 9 Norte 24 Norte 0 -- -- 48
2018-05-03 10:00:00 12 8 Nordeste 17 Norte 0 -- -- 64
2018-05-03 09:00:00 7.4 8 Nordeste 18 Nordeste 0 -- -- 77
2018-05-03 08:00:00 6.3 8 Norte 19 Norte 0 -- -- 81
2018-05-03 07:00:00 6 12 Norte 20 Noroeste 0 -- -- 83
2018-05-03 06:00:00 6.1 9 Norte 18 Norte 0 -- -- 84
2018-05-03 05:00:00 6.1 9 Norte 19 Nordeste 0 -- -- 85
2018-05-03 04:00:00 6.5 6 Norte 20 Norte 0 -- -- 83
2018-05-03 03:00:00 7.1 8 Norte 18 Norte 0 -- -- 82
2018-05-03 02:00:00 7.2 8 Norte 18 Norte 0 -- -- 81
2018-05-03 01:00:00 7.8 11 Norte 19 Norte 0 -- -- 78
2018-05-03 00:00:00 8.7 8 Norte 16 Norte 0 -- -- 74
2018-05-02 23:00:00 9.7 5 Norte 23 Norte 0 -- -- 71
2018-05-02 22:00:00 10.7 13 Norte 29 Norte 0 -- -- 66
2018-05-02 21:00:00 12 10 Norte 24 Noroeste 0 -- -- 60
2018-05-02 20:00:00 14.5 9 Norte 27 Norte 0 -- -- 53
2018-05-02 19:00:00 15.4 9 Noroeste 30 Noroeste 0 -- -- 52
2018-05-02 18:00:00 16.3 8 Noroeste 28 Noroeste 0 -- -- 53
2018-05-02 17:00:00 17.4 7 Oeste 26 Norte 0 -- -- 48
2018-05-02 16:00:00 17 10 Noroeste 24 Norte 0 -- -- 46
2018-05-02 15:00:00 17.5 9 Noroeste 29 Oeste 0 -- -- 48
2018-05-02 14:00:00 15.6 6 Oeste 24 Norte 0 -- -- 51
2018-05-02 13:00:00 15.3 7 Noroeste 21 Oeste 0 -- -- 49
2018-05-02 12:00:00 13.8 6 Norte 15 Nordeste 0 -- -- 57
2018-05-02 11:00:00 12.2 4 Norte 13 Nordeste 0 -- -- 64
2018-05-02 10:00:00 9.6 8 Nordeste 14 Nordeste 0 -- -- 73
2018-05-02 09:00:00 5.7 10 Nordeste 13 Nordeste 0 -- -- 84
2018-05-02 08:00:00 4.4 11 Nordeste 16 Nordeste 0 -- -- 89
2018-05-02 07:00:00 4 11 Nordeste 16 Nordeste 0 -- -- 92
2018-05-02 06:00:00 3.9 10 Nordeste 17 Norte 0 -- -- 93
2018-05-02 05:00:00 4 12 Nordeste 19 Norte 0 -- -- 92
2018-05-02 04:00:00 4.8 10 Nordeste 16 Norte 0 -- -- 90
2018-05-02 03:00:00 5.4 6 Nordeste 13 Norte 0 -- -- 88
2018-05-02 02:00:00 7.4 5 Norte 16 Norte 0 -- -- 82
2018-05-02 01:00:00 7.9 5 Noroeste 15 Norte 0 -- -- 80
2018-05-02 00:00:00 8.2 4 Norte 23 Noroeste 0 -- -- 78
2018-05-01 23:00:00 8 8 Norte 17 Norte 0 -- -- 72
2018-05-01 22:00:00 7.9 9 Nordeste 26 Norte 0 -- -- 76
2018-05-01 21:00:00 8.8 6 Norte 17 Noroeste 0 -- -- 68
2018-05-01 20:00:00 9.2 4 Noroeste 18 Norte 0 -- -- 70
2018-05-01 19:00:00 8.1 16 Norte 30 Noroeste 0.2 -- -- 78
2018-05-01 18:00:00 11.6 11 Noroeste 33 Norte 0 -- -- 62
2018-05-01 17:00:00 14.1 14 Oeste 31 Oeste 0 -- -- 47
2018-05-01 16:00:00 13.6 12 Oeste 30 Oeste 0 -- -- 53
2018-05-01 15:00:00 11.6 5 Noroeste 32 Sudoeste 0.2 -- -- 70
2018-05-01 14:00:00 11.5 6 Norte 22 Norte 0 -- -- 67
2018-05-01 13:00:00 13 7 Sudoeste 31 Sudoeste 0 -- -- 53
2018-05-01 12:00:00 12.7 6 Sudoeste 23 Norte 0 -- -- 59
2018-05-01 11:00:00 11.7 6 Oeste 16 Este 0 -- -- 63
2018-05-01 10:00:00 10.6 4 Norte 10 Norte 0 -- -- 71
2018-05-01 09:00:00 6.1 9 Nordeste 12 Norte 0 -- -- 91
2018-05-01 08:00:00 5.2 9 Nordeste 13 Nordeste 0 -- -- 93
2018-05-01 07:00:00 5 10 Nordeste 15 Norte 0 -- -- 92
2018-05-01 06:00:00 5.7 10 Nordeste 19 Norte 0 -- -- 92
2018-05-01 05:00:00 5.5 12 Nordeste 21 Norte 0 -- -- 91
2018-05-01 04:00:00 6.4 10 Norte 27 Norte 0 -- -- 88
2018-05-01 03:00:00 7.7 14 Norte 28 Norte 0 -- -- 85
2018-05-01 02:00:00 7.7 8 Norte 25 Noroeste 0 -- -- 85
2018-05-01 01:00:00 7.8 13 Norte 30 Norte 0 -- -- 86
2018-05-01 00:00:00 8.1 10 Norte 24 Norte 0 -- -- 82
2018-04-30 23:00:00 8.8 7 Norte 26 Norte 0 -- -- 79
2018-04-30 22:00:00 9.4 6 Norte 20 Norte 0 -- -- 76
2018-04-30 21:00:00 10.6 4 Norte 18 Nordeste 0 -- -- 70
2018-04-30 20:00:00 10.9 8 Norte 23 Norte 0 -- -- 69
2018-04-30 19:00:00 11.3 5 Nordeste 23 Norte 0 -- -- 69
2018-04-30 18:00:00 12.3 5 Oeste 24 Noroeste 0 -- -- 63
2018-04-30 17:00:00 13 8 Noroeste 26 Norte 0 -- -- 58
2018-04-30 16:00:00 12.9 11 Noroeste 28 Noroeste 0 -- -- 57
2018-04-30 15:00:00 13.7 12 Noroeste 32 Noroeste 0 -- -- 51
2018-04-30 14:00:00 12.2 12 Norte 39 Noroeste 0 -- -- 54
2018-04-30 13:00:00 11.5 10 Norte 33 Noroeste 0 -- -- 53
2018-04-30 12:00:00 10.9 9 Noroeste 20 Noroeste 0 -- -- 55
2018-04-30 11:00:00 9.3 6 Norte 19 Noroeste 0 -- -- 63
2018-04-30 10:00:00 8.5 6 Norte 17 Norte 0 -- -- 76
2018-04-30 09:00:00 6.1 7 Norte 16 Norte 0 -- -- 89
2018-04-30 08:00:00 6.2 6 Norte 14 Nordeste 0 -- -- 86
2018-04-30 07:00:00 6.8 3 Norte 21 Norte 0 -- -- 82
2018-04-30 06:00:00 6.6 9 Norte 23 Norte 0 -- -- 88
2018-04-30 05:00:00 7 7 Norte 18 Norte 0 -- -- 88
2018-04-30 04:00:00 7.5 6 Norte 11 Norte 0 -- -- 87
2018-04-30 03:00:00 8 3 Noroeste 14 Norte 0 -- -- 86
2018-04-30 02:00:00 8.2 3 Noroeste 14 Norte 0 -- -- 86
2018-04-30 01:00:00 8.1 6 Norte 13 Noroeste 0 -- -- 85
2018-04-30 00:00:00 8.1 5 Noroeste 13 Norte 0 -- -- 83
2018-04-29 23:00:00 8.3 3 Norte 10 Nordeste 0 -- -- 79
2018-04-29 22:00:00 9 4 Norte 19 Noroeste 0 -- -- 73
2018-04-29 21:00:00 10.1 6 Oeste 26 Oeste 0 -- -- 69
2018-04-29 20:00:00 12.4 8 Noroeste 31 Noroeste 0 -- -- 58
2018-04-29 19:00:00 13.3 9 Noroeste 39 Sur 0 -- -- 55
2018-04-29 18:00:00 14 11 Oeste 36 Sudoeste 0 -- -- 55
2018-04-29 17:00:00 14 10 Noroeste 38 Sudoeste 0 -- -- 49
2018-04-29 16:00:00 13.9 13 Sudoeste 32 Oeste 0 -- -- 56
2018-04-29 15:00:00 12.5 12 Oeste 31 Noroeste 0 -- -- 61
2018-04-29 14:00:00 12.1 13 Oeste 30 Oeste 0.2 -- -- 68
2018-04-29 13:00:00 11.1 11 Oeste 31 Sudoeste 0 -- -- 68
2018-04-29 12:00:00 9.7 13 Oeste 27 Oeste 0 -- -- 75
2018-04-29 11:00:00 10.1 8 Noroeste 24 Norte 0 -- -- 74
2018-04-29 10:00:00 8.4 4 Noroeste 23 Norte 0 -- -- 82
2018-04-29 09:00:00 7.4 3 Noroeste 20 Norte 0 -- -- 89
2018-04-29 08:00:00 6.8 8 Norte 32 Norte 0.2 -- -- 88
2018-04-29 07:00:00 6.7 8 Noroeste 31 Oeste 0 -- -- 90
2018-04-29 06:00:00 6.8 5 Norte 27 Norte 0.6 -- -- 89
2018-04-29 05:00:00 6.9 4 Oeste 42 Norte 0.4 -- -- 86
2018-04-29 04:00:00 7.6 9 Noroeste 34 Noroeste 0 -- -- 85
2018-04-29 03:00:00 7.6 10 Noroeste 37 Norte 0.8 -- -- 84
2018-04-29 02:00:00 8.1 8 Sudoeste 27 Sudoeste 0 -- -- 86
2018-04-29 01:00:00 8.1 6 Oeste 29 Sur 0.2 -- -- 87
2018-04-29 00:00:00 8 18 Sudoeste 33 Oeste 1.8 -- -- 89
2018-04-28 23:00:00 8.7 8 Sudoeste 35 Sudoeste 0.8 -- -- 88
2018-04-28 22:00:00 9.7 16 Sudoeste 33 Sudoeste 0 -- -- 71
2018-04-28 21:00:00 10.6 9 Oeste 22 Sudoeste 0 -- -- 62
2018-04-28 20:00:00 12.8 6 Oeste 24 Sudoeste 0 -- -- 55
2018-04-28 19:00:00 14.6 9 Oeste 27 Sudoeste 0 -- -- 48
2018-04-28 18:00:00 15.1 14 Oeste 40 Sur 0 -- -- 44
2018-04-28 17:00:00 14.9 28 Sudoeste 48 Sudoeste 0 -- -- 50
2018-04-28 16:00:00 15.9 16 Sudoeste 35 Sudoeste 0 -- -- 54
2018-04-28 15:00:00 15.5 13 Sudoeste 34 Sudoeste 0 -- -- 59
2018-04-28 14:00:00 13.5 9 Oeste 23 Sur 0 -- -- 70
2018-04-28 13:00:00 12.7 5 Sudoeste 23 Sudoeste 0 -- -- 77
2018-04-28 12:00:00 12.1 3 Norte 19 Noroeste 0 -- -- 81
2018-04-28 11:00:00 11.5 8 Noroeste 31 Noroeste 0 -- -- 83
2018-04-28 10:00:00 12.3 5 Oeste 17 Noroeste 0 -- -- 82
2018-04-28 09:00:00 10.9 8 Norte 19 Norte 0 -- -- 90
2018-04-28 08:00:00 10.5 7 Norte 15 Norte 0 -- -- 87
2018-04-28 07:00:00 11.2 9 Norte 13 Norte 0 -- -- 78
2018-04-28 06:00:00 11.4 8 Norte 11 Norte 0 -- -- 78
2018-04-28 05:00:00 11 7 Norte 23 Norte 0 -- -- 81
2018-04-28 04:00:00 11 12 Norte 25 Norte 0 -- -- 81
2018-04-28 03:00:00 11.8 13 Norte 19 Norte 0 -- -- 76
2018-04-28 02:00:00 13.2 10 Nordeste 28 Norte 0 -- -- 70
2018-04-28 01:00:00 15.1 17 Norte 29 Norte 0 -- -- 62
2018-04-28 00:00:00 15.4 17 Norte 35 Norte 0 -- -- 60
2018-04-27 23:00:00 15.8 17 Norte 33 Norte 0 -- -- 58
2018-04-27 22:00:00 15.7 17 Norte 30 Norte 0 -- -- 58
2018-04-27 21:00:00 16.6 17 Norte 30 Norte 0 -- -- 64
2018-04-27 20:00:00 19.3 7 Norte 27 Norte 0 -- -- 65
2018-04-27 19:00:00 21.6 12 Sudoeste 22 Oeste 0 -- -- 59
2018-04-27 18:00:00 22 12 Sudoeste 27 Norte 0 -- -- 60
2018-04-27 17:00:00 22.3 9 Noroeste 26 Sudoeste 0 -- -- 58
2018-04-27 16:00:00 22.6 11 Noroeste 21 Norte 0 -- -- 56
2018-04-27 15:00:00 21.8 6 Oeste 21 Sudoeste 0 -- -- 58
2018-04-27 14:00:00 22.1 6 Este 17 Sudoeste 0 -- -- 61
2018-04-27 13:00:00 20.9 6 Sudoeste 15 Este 0 -- -- 64
2018-04-27 12:00:00 19.9 4 Sur 14 Nordeste 0 -- -- 63
2018-04-27 11:00:00 18.5 4 Norte 12 Norte 0 -- -- 64
2018-04-27 10:00:00 15 6 Nordeste 13 Nordeste 0 -- -- 75
2018-04-27 09:00:00 11.7 10 Nordeste 15 Nordeste 0 -- -- 89
2018-04-27 08:00:00 11.6 10 Norte 14 Norte 0 -- -- 88
2018-04-27 07:00:00 11.9 6 Norte 12 Norte 0 -- -- 84
2018-04-27 06:00:00 12.1 6 Norte 10 Norte 0 -- -- 85
2018-04-27 05:00:00 12.1 5 Nordeste 9 Norte 0 -- -- 87
2018-04-27 04:00:00 12 6 Norte 9 Norte 0 -- -- 93
2018-04-27 03:00:00 11.9 7 Nordeste 9 Nordeste 0 -- -- 93
2018-04-27 02:00:00 12.2 3 Norte 5 Norte 0 -- -- 89
2018-04-27 01:00:00 12.4 2 Sudoeste 13 Sudoeste 0 -- -- 86
2018-04-27 00:00:00 13.2 8 Sudoeste 17 Sudoeste 0 -- -- 88
2018-04-26 23:00:00 13.5 9 Sudoeste 15 Sur 0 -- -- 91
2018-04-26 22:00:00 13.4 13 Sudoeste 21 Sudoeste 0 -- -- 93
2018-04-26 21:00:00 13.5 17 Sudoeste 24 Sur 0 -- -- 94
2018-04-26 20:00:00 15.3 12 Sudoeste 27 Sudoeste 0 -- -- 88
2018-04-26 19:00:00 18.1 9 Sudoeste 22 Sudoeste 0 -- -- 74
2018-04-26 18:00:00 18.5 14 Sudoeste 22 Sur 0 -- -- 79
2018-04-26 17:00:00 19.4 12 Sudoeste 27 Sudoeste 0 -- -- 74
2018-04-26 16:00:00 19.5 12 Sudoeste 21 Sudoeste 0 -- -- 71
2018-04-26 15:00:00 19 13 Sudoeste 27 Sudoeste 0 -- -- 75
2018-04-26 14:00:00 21.1 14 Sudoeste 23 Sudoeste 0 -- -- 66
2018-04-26 13:00:00 20.2 12 Sudoeste 19 Sur 0 -- -- 68
2018-04-26 12:00:00 19.5 6 Sudoeste 13 Sur 0 -- -- 71
2018-04-26 11:00:00 18.4 5 Nordeste 15 Norte 0 -- -- 70
2018-04-26 10:00:00 15.5 7 Norte 16 Norte 0 -- -- 80
2018-04-26 09:00:00 12.1 11 Nordeste 17 Nordeste 0 -- -- 94
2018-04-26 08:00:00 11.2 8 Nordeste 15 Norte 0 -- -- 93
2018-04-26 07:00:00 11.8 8 Norte 16 Norte 0 -- -- 91
2018-04-26 06:00:00 12.4 8 Norte 13 Norte 0 -- -- 88
2018-04-26 05:00:00 13.1 4 Este 14 Norte 0 -- -- 84
2018-04-26 04:00:00 13 5 Nordeste 9 Norte 0 -- -- 86
2018-04-26 03:00:00 13 5 Nordeste 12 Norte 0 -- -- 87
2018-04-26 02:00:00 13.2 7 Norte 12 Norte 0 -- -- 85
2018-04-26 01:00:00 13.6 0 Calma 4 Oeste 0 -- -- 81
2018-04-26 00:00:00 13.7 0 Calma 8 Norte 0 -- -- 84
2018-04-25 23:00:00 14.2 7 Norte 10 Norte 0 -- -- 82
2018-04-25 22:00:00 14.6 2 Norte 5 Nordeste 0 -- -- 80
2018-04-25 21:00:00 14.9 3 Sudeste 8 Sur 0 -- -- 80
2018-04-25 20:00:00 15.5 6 Sudoeste 14 Sudoeste 0 -- -- 78
2018-04-25 19:00:00 16.9 9 Sudoeste 21 Sudoeste 0 -- -- 73
2018-04-25 18:00:00 17.6 16 Sudoeste 30 Sudoeste 0 -- -- 70
2018-04-25 17:00:00 18.1 13 Sudoeste 27 Sudoeste 0 -- -- 71
2018-04-25 16:00:00 19.7 15 Sudoeste 26 Sudoeste 0 -- -- 66
2018-04-25 15:00:00 18 9 Sudoeste 20 Sudoeste 0 -- -- 72
2018-04-25 14:00:00 18.7 12 Sudoeste 19 Sudoeste 0 -- -- 70
2018-04-25 13:00:00 18.3 6 Sudoeste 16 Sudoeste 0 -- -- 70
2018-04-25 12:00:00 17.1 6 Norte 20 Norte 0 -- -- 68
2018-04-25 11:00:00 15.5 6 Nordeste 22 Noroeste 0 -- -- 76
2018-04-25 10:00:00 13.3 7 Norte 15 Nordeste 0 -- -- 86
2018-04-25 09:00:00 11.6 9 Nordeste 21 Norte 0 -- -- 94
2018-04-25 08:00:00 12 10 Norte 17 Nordeste 0 -- -- 89
2018-04-25 07:00:00 13.1 4 Noroeste 12 Norte 0 -- -- 84
2018-04-25 06:00:00 13.6 4 Sudoeste 9 Sur 0 -- -- 83
2018-04-25 05:00:00 13.3 4 Nordeste 11 Este 0 -- -- 85
2018-04-25 04:00:00 12.7 5 Nordeste 22 Norte 0 -- -- 88
2018-04-25 03:00:00 12.7 8 Norte 19 Norte 0 -- -- 89
2018-04-25 02:00:00 12.9 8 Norte 17 Norte 0 -- -- 89
2018-04-25 01:00:00 13.6 0 Calma 8 Sudoeste 0 -- -- 85
2018-04-25 00:00:00 13.5 4 Sudoeste 14 Sudoeste 0 -- -- 85
2018-04-24 23:00:00 13.3 10 Sudoeste 19 Sudoeste 0 -- -- 86
2018-04-24 22:00:00 13.6 12 Sudoeste 17 Sudoeste 0 -- -- 84
2018-04-24 21:00:00 16.2 0 Calma 24 Norte 0 -- -- 78
2018-04-24 20:00:00 17.4 6 Norte 18 Norte 0 -- -- 74
2018-04-24 19:00:00 17.5 6 Sudoeste 18 Oeste 0 -- -- 71
2018-04-24 18:00:00 18.9 9 Sudoeste 24 Sudoeste 0 -- -- 69
2018-04-24 17:00:00 18.8 15 Sudoeste 24 Sur 0 -- -- 68
2018-04-24 16:00:00 18.3 15 Sudoeste 31 Sudoeste 0 -- -- 68
2018-04-24 15:00:00 18.5 17 Sudoeste 27 Sudoeste 0 -- -- 68
2018-04-24 14:00:00 17.9 12 Sudoeste 23 Sur 0 -- -- 72
2018-04-24 13:00:00 17.2 13 Sudoeste 26 Sudoeste 0 -- -- 73
2018-04-24 12:00:00 16.7 10 Sudoeste 19 Sudoeste 0 -- -- 76
2018-04-24 11:00:00 15.6 11 Sudoeste 19 Sudoeste 0 -- -- 76
2018-04-24 10:00:00 15.1 8 Sudoeste 13 Sudoeste 0 -- -- 76
2018-04-24 09:00:00 14.2 3 Sudoeste 8 Sudeste 0 -- -- 77
2018-04-24 08:00:00 13.8 0 Calma 8 Sudeste 0 -- -- 75
2018-04-24 07:00:00 14.1 3 Sur 12 Sur 0 -- -- 74
2018-04-24 06:00:00 13.3 3 Sudeste 13 Nordeste 0 -- -- 82
2018-04-24 05:00:00 12.8 3 Noroeste 16 Sudoeste 0 -- -- 86
2018-04-24 04:00:00 13.2 8 Sudoeste 16 Sudoeste 0 -- -- 86
2018-04-24 03:00:00 12.7 6 Sudoeste 10 Sudoeste 0 -- -- 87
2018-04-24 02:00:00 12.8 4 Sur 8 Sur 0 -- -- 86
2018-04-24 01:00:00 12.6 3 Nordeste 15 Norte 0 -- -- 88
2018-04-24 00:00:00 13 0 Calma 6 Sudoeste 0 -- -- 84
2018-04-23 23:00:00 13.3 2 Este 12 Norte 0 -- -- 86
2018-04-23 22:00:00 13.4 0 Calma 4 Sudoeste 0 -- -- 84
2018-04-23 21:00:00 14.1 4 Sudoeste 12 Sur 0 -- -- 82
2018-04-23 20:00:00 15.1 7 Sudoeste 14 Sur 0 -- -- 82
2018-04-23 19:00:00 16.7 9 Sudoeste 21 Sudoeste 0 -- -- 79
2018-04-23 18:00:00 17.5 13 Sudoeste 21 Sudoeste 0 -- -- 78
2018-04-23 17:00:00 17.4 13 Sudoeste 27 Sudoeste 0 -- -- 77
2018-04-23 16:00:00 17.7 15 Sudoeste 27 Sudoeste 0 -- -- 74
2018-04-23 15:00:00 17.5 16 Sudoeste 30 Sudoeste 0 -- -- 74
2018-04-23 14:00:00 17.1 17 Sudoeste 29 Sudoeste 0 -- -- 77
2018-04-23 13:00:00 16.5 19 Sudoeste 28 Sudoeste 0 -- -- 78
2018-04-23 12:00:00 16.6 17 Sudoeste 25 Sudoeste 0 -- -- 78
2018-04-23 11:00:00 16.9 8 Sudoeste 13 Sudoeste 0 -- -- 78
2018-04-23 10:00:00 15.9 3 Este 7 Este 0 -- -- 79
2018-04-23 09:00:00 14.4 3 Nordeste 8 Nordeste 0 -- -- 86
2018-04-23 08:00:00 14 5 Nordeste 9 Norte 0 -- -- 87
2018-04-23 07:00:00 13.9 2 Nordeste 12 Este 0 -- -- 88
2018-04-23 06:00:00 13.7 6 Nordeste 13 Norte 0 -- -- 91
2018-04-23 05:00:00 14 6 Norte 13 Norte 0 -- -- 91
2018-04-23 04:00:00 13.3 9 Norte 19 Norte 0 -- -- 93
2018-04-23 03:00:00 12.7 9 Nordeste 17 Norte 0 -- -- 93
2018-04-23 02:00:00 13.2 9 Este 20 Norte 0 -- -- 93
2018-04-23 01:00:00 12.9 8 Norte 17 Norte 0 -- -- 92
2018-04-23 00:00:00 12.7 6 Norte 18 Nordeste 0 -- -- 91
2018-04-22 23:00:00 12.8 3 Sudoeste 11 Nordeste 0 -- -- 89
2018-04-22 22:00:00 13.1 0 Calma 10 Sudoeste 0 -- -- 88
2018-04-22 21:00:00 14 6 Sudoeste 17 Sur 0 -- -- 84
2018-04-22 20:00:00 16.2 6 Sudoeste 22 Sur 0 -- -- 76
2018-04-22 19:00:00 17.6 9 Sudoeste 18 Sudoeste 0 -- -- 73
2018-04-22 18:00:00 18.9 10 Sudoeste 21 Sudoeste 0 -- -- 69
2018-04-22 17:00:00 18.6 12 Sudoeste 27 Sudoeste 0 -- -- 70
2018-04-22 16:00:00 18 16 Sudoeste 25 Sudoeste 0 -- -- 73
2018-04-22 15:00:00 18.1 13 Sudoeste 22 Oeste 0 -- -- 73
2018-04-22 14:00:00 17.2 14 Sudoeste 24 Sudoeste 0 -- -- 75
2018-04-22 13:00:00 16.3 14 Sudoeste 27 Sudoeste 0 -- -- 77
2018-04-22 12:00:00 16 13 Sudoeste 24 Sudoeste 0 -- -- 75
2018-04-22 11:00:00 15 10 Sudoeste 21 Sudoeste 0 -- -- 80
2018-04-22 10:00:00 13.4 8 Sudoeste 15 Sudoeste 0 -- -- 86
2018-04-22 09:00:00 12 3 Sudoeste 9 Sur 0 -- -- 91
2018-04-22 08:00:00 11.4 4 Sudoeste 21 Sur 0 -- -- 94
2018-04-22 07:00:00 11.2 2 Sur 12 Sudoeste 0 -- -- 96
2018-04-22 06:00:00 11.5 4 Sudoeste 10 Sudoeste 0 -- -- 96
2018-04-22 05:00:00 11.6 7 Sudoeste 15 Sudoeste 0 -- -- 96
2018-04-22 04:00:00 11.7 12 Sudoeste 16 Sudoeste 0 -- -- 96
2018-04-22 03:00:00 11.7 6 Sudoeste 13 Sudoeste 0 -- -- 94
2018-04-22 02:00:00 11.8 5 Oeste 19 Sudoeste 0 -- -- 93
2018-04-22 01:00:00 12 3 Norte 28 Sur 0 -- -- 94
2018-04-22 00:00:00 12.5 5 Sur 23 Nordeste 0 -- -- 89